sensor_id;sensor_type;location;lat;lon;timestamp;temperature;humidity
56538;DHT22;42435;53.292;6.000;2022-12-20T00:01:10;10.40;83.00
56538;DHT22;42435;53.292;6.000;2022-12-20T00:03:36;10.50;83.00
56538;DHT22;42435;53.292;6.000;2022-12-20T00:06:03;10.50;83.00
56538;DHT22;42435;53.292;6.000;2022-12-20T00:08:29;10.40;83.00
56538;DHT22;42435;53.292;6.000;2022-12-20T00:10:54;10.50;83.00
56538;DHT22;42435;53.292;6.000;2022-12-20T00:13:20;10.50;83.00
56538;DHT22;42435;53.292;6.000;2022-12-20T00:15:46;10.50;82.90
56538;DHT22;42435;53.292;6.000;2022-12-20T00:18:12;10.50;82.90
56538;DHT22;42435;53.292;6.000;2022-12-20T00:20:38;10.50;82.80
56538;DHT22;42435;53.292;6.000;2022-12-20T00:23:03;10.50;82.80
56538;DHT22;42435;53.292;6.000;2022-12-20T00:25:29;10.50;82.70
56538;DHT22;42435;53.292;6.000;2022-12-20T00:27:54;10.50;82.70
56538;DHT22;42435;53.292;6.000;2022-12-20T00:30:20;10.50;82.60
56538;DHT22;42435;53.292;6.000;2022-12-20T00:32:45;10.50;82.60
56538;DHT22;42435;53.292;6.000;2022-12-20T00:35:12;10.60;82.50
56538;DHT22;42435;53.292;6.000;2022-12-20T00:37:37;10.60;82.50
56538;DHT22;42435;53.292;6.000;2022-12-20T00:40:04;10.60;82.40
56538;DHT22;42435;53.292;6.000;2022-12-20T00:42:30;10.50;82.30
56538;DHT22;42435;53.292;6.000;2022-12-20T00:44:56;10.60;82.30
56538;DHT22;42435;53.292;6.000;2022-12-20T00:47:21;10.60;82.20
56538;DHT22;42435;53.292;6.000;2022-12-20T00:49:47;10.60;82.20
56538;DHT22;42435;53.292;6.000;2022-12-20T00:52:12;10.60;82.10
56538;DHT22;42435;53.292;6.000;2022-12-20T00:54:38;10.60;82.00
56538;DHT22;42435;53.292;6.000;2022-12-20T00:57:04;10.60;82.00
56538;DHT22;42435;53.292;6.000;2022-12-20T00:59:29;10.60;81.90
56538;DHT22;42435;53.292;6.000;2022-12-20T01:01:55;10.60;81.90
56538;DHT22;42435;53.292;6.000;2022-12-20T01:04:20;10.60;81.80
56538;DHT22;42435;53.292;6.000;2022-12-20T01:06:46;10.60;81.80
56538;DHT22;42435;53.292;6.000;2022-12-20T01:09:12;10.60;81.80
56538;DHT22;42435;53.292;6.000;2022-12-20T01:11:38;10.60;81.80
56538;DHT22;42435;53.292;6.000;2022-12-20T01:14:11;10.60;81.70
56538;DHT22;42435;53.292;6.000;2022-12-20T01:16:40;10.60;81.70
56538;DHT22;42435;53.292;6.000;2022-12-20T01:19:08;10.60;81.60
56538;DHT22;42435;53.292;6.000;2022-12-20T01:21:34;10.60;81.60
56538;DHT22;42435;53.292;6.000;2022-12-20T01:24:00;10.60;81.50
56538;DHT22;42435;53.292;6.000;2022-12-20T01:26:27;10.60;81.40
56538;DHT22;42435;53.292;6.000;2022-12-20T01:28:55;10.60;81.40
56538;DHT22;42435;53.292;6.000;2022-12-20T01:31:21;10.60;81.40
56538;DHT22;42435;53.292;6.000;2022-12-20T01:33:48;10.60;81.30
56538;DHT22;42435;53.292;6.000;2022-12-20T01:36:18;10.60;81.20
56538;DHT22;42435;53.292;6.000;2022-12-20T01:38:44;10.60;81.20
56538;DHT22;42435;53.292;6.000;2022-12-20T01:41:18;10.70;81.10
56538;DHT22;42435;53.292;6.000;2022-12-20T01:43:54;10.60;81.00
56538;DHT22;42435;53.292;6.000;2022-12-20T01:46:22;10.60;81.00
56538;DHT22;42435;53.292;6.000;2022-12-20T01:49:02;10.60;81.00
56538;DHT22;42435;53.292;6.000;2022-12-20T01:51:31;10.60;80.90
56538;DHT22;42435;53.292;6.000;2022-12-20T01:54:18;10.60;80.90
56538;DHT22;42435;53.292;6.000;2022-12-20T01:56:49;10.60;80.80
56538;DHT22;42435;53.292;6.000;2022-12-20T01:59:15;10.60;80.80
56538;DHT22;42435;53.292;6.000;2022-12-20T02:01:42;10.60;80.80
56538;DHT22;42435;53.292;6.000;2022-12-20T02:04:09;10.60;80.80
56538;DHT22;42435;53.292;6.000;2022-12-20T02:06:34;10.60;80.70
56538;DHT22;42435;53.292;6.000;2022-12-20T02:09:02;10.60;80.70
56538;DHT22;42435;53.292;6.000;2022-12-20T02:14:57;10.60;80.60
56538;DHT22;42435;53.292;6.000;2022-12-20T02:23:13;10.60;80.50
56538;DHT22;42435;53.292;6.000;2022-12-20T02:31:39;10.60;80.60
56538;DHT22;42435;53.292;6.000;2022-12-20T02:34:08;10.60;80.60
56538;DHT22;42435;53.292;6.000;2022-12-20T02:36:35;10.60;80.70
56538;DHT22;42435;53.292;6.000;2022-12-20T02:39:01;10.60;80.70
56538;DHT22;42435;53.292;6.000;2022-12-20T02:41:32;10.60;80.70
56538;DHT22;42435;53.292;6.000;2022-12-20T02:44:14;10.60;80.80
56538;DHT22;42435;53.292;6.000;2022-12-20T02:47:01;10.60;80.90
56538;DHT22;42435;53.292;6.000;2022-12-20T02:49:32;10.60;80.90
56538;DHT22;42435;53.292;6.000;2022-12-20T02:52:00;10.60;81.10
56538;DHT22;42435;53.292;6.000;2022-12-20T02:54:26;10.50;81.20
56538;DHT22;42435;53.292;6.000;2022-12-20T02:57:27;10.50;81.40
56538;DHT22;42435;53.292;6.000;2022-12-20T03:00:01;10.50;81.70
56538;DHT22;42435;53.292;6.000;2022-12-20T03:02:30;10.40;81.70
56538;DHT22;42435;53.292;6.000;2022-12-20T03:05:21;10.40;81.90
56538;DHT22;42435;53.292;6.000;2022-12-20T03:07:47;10.40;82.00
56538;DHT22;42435;53.292;6.000;2022-12-20T03:10:13;10.40;82.20
56538;DHT22;42435;53.292;6.000;2022-12-20T03:12:39;10.40;82.30
56538;DHT22;42435;53.292;6.000;2022-12-20T03:15:05;10.40;82.50
56538;DHT22;42435;53.292;6.000;2022-12-20T03:17:30;10.40;82.70
56538;DHT22;42435;53.292;6.000;2022-12-20T03:19:56;10.40;82.80
56538;DHT22;42435;53.292;6.000;2022-12-20T03:22:22;10.40;82.90
56538;DHT22;42435;53.292;6.000;2022-12-20T03:24:49;10.40;83.00
56538;DHT22;42435;53.292;6.000;2022-12-20T03:27:14;10.40;83.10
56538;DHT22;42435;53.292;6.000;2022-12-20T03:29:41;10.40;83.20
56538;DHT22;42435;53.292;6.000;2022-12-20T03:32:06;10.40;83.20
56538;DHT22;42435;53.292;6.000;2022-12-20T03:34:32;10.40;83.30
56538;DHT22;42435;53.292;6.000;2022-12-20T03:36:57;10.50;83.30
56538;DHT22;42435;53.292;6.000;2022-12-20T03:39:23;10.50;83.30
56538;DHT22;42435;53.292;6.000;2022-12-20T03:41:48;10.40;83.40
56538;DHT22;42435;53.292;6.000;2022-12-20T03:44:14;10.50;83.50
56538;DHT22;42435;53.292;6.000;2022-12-20T03:46:40;10.50;83.60
56538;DHT22;42435;53.292;6.000;2022-12-20T03:49:05;10.50;83.60
56538;DHT22;42435;53.292;6.000;2022-12-20T03:51:31;10.50;83.70
56538;DHT22;42435;53.292;6.000;2022-12-20T03:53:57;10.50;83.70
56538;DHT22;42435;53.292;6.000;2022-12-20T03:56:22;10.50;83.80
56538;DHT22;42435;53.292;6.000;2022-12-20T03:58:48;10.50;83.80
56538;DHT22;42435;53.292;6.000;2022-12-20T04:01:31;10.60;83.90
56538;DHT22;42435;53.292;6.000;2022-12-20T04:04:01;10.50;84.10
56538;DHT22;42435;53.292;6.000;2022-12-20T04:06:27;10.50;84.00
56538;DHT22;42435;53.292;6.000;2022-12-20T04:08:53;10.50;84.10
56538;DHT22;42435;53.292;6.000;2022-12-20T04:11:18;10.60;84.20
56538;DHT22;42435;53.292;6.000;2022-12-20T04:13:49;10.50;84.30
56538;DHT22;42435;53.292;6.000;2022-12-20T04:16:18;10.50;84.30
56538;DHT22;42435;53.292;6.000;2022-12-20T04:18:43;10.60;84.40
56538;DHT22;42435;53.292;6.000;2022-12-20T04:21:10;10.50;84.50
56538;DHT22;42435;53.292;6.000;2022-12-20T04:23:37;10.50;84.50
56538;DHT22;42435;53.292;6.000;2022-12-20T04:26:04;10.60;84.60
56538;DHT22;42435;53.292;6.000;2022-12-20T04:28:30;10.60;84.60
56538;DHT22;42435;53.292;6.000;2022-12-20T04:30:57;10.60;84.60
56538;DHT22;42435;53.292;6.000;2022-12-20T04:33:23;10.60;84.60
56538;DHT22;42435;53.292;6.000;2022-12-20T04:35:49;10.60;84.60
56538;DHT22;42435;53.292;6.000;2022-12-20T04:38:15;10.60;84.60
56538;DHT22;42435;53.292;6.000;2022-12-20T04:40:41;10.60;84.60
56538;DHT22;42435;53.292;6.000;2022-12-20T04:43:06;10.70;84.60
56538;DHT22;42435;53.292;6.000;2022-12-20T04:45:32;10.70;84.60
56538;DHT22;42435;53.292;6.000;2022-12-20T04:47:58;10.70;84.60
56538;DHT22;42435;53.292;6.000;2022-12-20T04:50:24;10.70;84.60
56538;DHT22;42435;53.292;6.000;2022-12-20T04:52:49;10.70;84.70
56538;DHT22;42435;53.292;6.000;2022-12-20T04:55:38;10.70;84.70
56538;DHT22;42435;53.292;6.000;2022-12-20T04:58:04;10.70;84.60
56538;DHT22;42435;53.292;6.000;2022-12-20T05:00:29;10.70;84.60
56538;DHT22;42435;53.292;6.000;2022-12-20T05:02:55;10.70;84.60
56538;DHT22;42435;53.292;6.000;2022-12-20T05:05:21;10.70;84.60
56538;DHT22;42435;53.292;6.000;2022-12-20T05:07:46;10.70;84.50
56538;DHT22;42435;53.292;6.000;2022-12-20T05:10:12;10.80;84.50
56538;DHT22;42435;53.292;6.000;2022-12-20T05:12:41;10.80;84.50
56538;DHT22;42435;53.292;6.000;2022-12-20T05:15:06;10.80;84.40
56538;DHT22;42435;53.292;6.000;2022-12-20T05:17:33;10.80;84.40
56538;DHT22;42435;53.292;6.000;2022-12-20T05:19:58;10.80;84.30
56538;DHT22;42435;53.292;6.000;2022-12-20T05:22:24;10.90;84.30
56538;DHT22;42435;53.292;6.000;2022-12-20T05:25:12;10.90;84.30
56538;DHT22;42435;53.292;6.000;2022-12-20T05:27:56;10.90;84.20
56538;DHT22;42435;53.292;6.000;2022-12-20T05:30:23;10.90;84.10
56538;DHT22;42435;53.292;6.000;2022-12-20T05:32:48;10.90;84.10
56538;DHT22;42435;53.292;6.000;2022-12-20T05:35:14;10.90;84.10
56538;DHT22;42435;53.292;6.000;2022-12-20T05:37:40;10.90;84.00
56538;DHT22;42435;53.292;6.000;2022-12-20T05:40:06;11.00;84.00
56538;DHT22;42435;53.292;6.000;2022-12-20T05:42:35;11.00;83.90
56538;DHT22;42435;53.292;6.000;2022-12-20T05:45:01;11.00;83.80
56538;DHT22;42435;53.292;6.000;2022-12-20T05:47:28;11.00;83.80
56538;DHT22;42435;53.292;6.000;2022-12-20T05:49:58;11.00;83.80
56538;DHT22;42435;53.292;6.000;2022-12-20T05:52:24;11.00;83.70
56538;DHT22;42435;53.292;6.000;2022-12-20T05:54:49;11.10;83.60
56538;DHT22;42435;53.292;6.000;2022-12-20T05:57:15;11.10;83.60
56538;DHT22;42435;53.292;6.000;2022-12-20T05:59:40;11.00;83.60
56538;DHT22;42435;53.292;6.000;2022-12-20T06:02:06;11.10;83.50
56538;DHT22;42435;53.292;6.000;2022-12-20T06:04:32;11.10;83.50
56538;DHT22;42435;53.292;6.000;2022-12-20T06:06:58;11.10;83.40
56538;DHT22;42435;53.292;6.000;2022-12-20T06:09:26;11.10;83.40
56538;DHT22;42435;53.292;6.000;2022-12-20T06:11:52;11.20;83.30
56538;DHT22;42435;53.292;6.000;2022-12-20T06:14:17;11.10;83.30
56538;DHT22;42435;53.292;6.000;2022-12-20T06:16:43;11.20;83.20
56538;DHT22;42435;53.292;6.000;2022-12-20T06:19:08;11.20;83.20
56538;DHT22;42435;53.292;6.000;2022-12-20T06:21:34;11.20;83.20
56538;DHT22;42435;53.292;6.000;2022-12-20T06:23:59;11.20;83.20
56538;DHT22;42435;53.292;6.000;2022-12-20T06:26:26;11.20;83.10
56538;DHT22;42435;53.292;6.000;2022-12-20T06:28:52;11.20;83.10
56538;DHT22;42435;53.292;6.000;2022-12-20T06:31:19;11.20;83.10
56538;DHT22;42435;53.292;6.000;2022-12-20T06:33:45;11.20;83.00
56538;DHT22;42435;53.292;6.000;2022-12-20T06:36:10;11.20;83.10
56538;DHT22;42435;53.292;6.000;2022-12-20T06:38:36;11.20;83.10
56538;DHT22;42435;53.292;6.000;2022-12-20T06:41:03;11.20;83.10
56538;DHT22;42435;53.292;6.000;2022-12-20T06:43:28;11.20;83.10
56538;DHT22;42435;53.292;6.000;2022-12-20T06:45:54;11.20;83.10
56538;DHT22;42435;53.292;6.000;2022-12-20T06:48:19;11.20;83.20
56538;DHT22;42435;53.292;6.000;2022-12-20T06:50:48;11.20;83.20
56538;DHT22;42435;53.292;6.000;2022-12-20T06:53:14;11.10;83.30
56538;DHT22;42435;53.292;6.000;2022-12-20T06:55:39;11.20;83.30
56538;DHT22;42435;53.292;6.000;2022-12-20T06:58:05;11.10;83.40
56538;DHT22;42435;53.292;6.000;2022-12-20T07:00:31;11.10;83.40
56538;DHT22;42435;53.292;6.000;2022-12-20T07:02:57;11.20;83.50
56538;DHT22;42435;53.292;6.000;2022-12-20T07:05:22;11.10;83.60
56538;DHT22;42435;53.292;6.000;2022-12-20T07:07:48;11.20;83.70
56538;DHT22;42435;53.292;6.000;2022-12-20T07:10:14;11.20;83.80
56538;DHT22;42435;53.292;6.000;2022-12-20T07:12:39;11.10;83.90
56538;DHT22;42435;53.292;6.000;2022-12-20T07:15:06;11.10;84.00
56538;DHT22;42435;53.292;6.000;2022-12-20T07:17:32;11.10;84.10
56538;DHT22;42435;53.292;6.000;2022-12-20T07:19:58;11.10;84.20
56538;DHT22;42435;53.292;6.000;2022-12-20T07:22:23;11.10;84.30
56538;DHT22;42435;53.292;6.000;2022-12-20T07:24:49;11.10;84.50
56538;DHT22;42435;53.292;6.000;2022-12-20T07:27:14;11.10;84.50
56538;DHT22;42435;53.292;6.000;2022-12-20T07:29:40;11.10;84.60
56538;DHT22;42435;53.292;6.000;2022-12-20T07:32:07;11.20;84.70
56538;DHT22;42435;53.292;6.000;2022-12-20T07:34:32;11.10;84.80
56538;DHT22;42435;53.292;6.000;2022-12-20T07:36:58;11.10;84.80
56538;DHT22;42435;53.292;6.000;2022-12-20T07:39:23;11.20;84.90
56538;DHT22;42435;53.292;6.000;2022-12-20T07:41:53;11.20;85.00
56538;DHT22;42435;53.292;6.000;2022-12-20T07:44:20;11.10;85.00
56538;DHT22;42435;53.292;6.000;2022-12-20T07:46:45;11.10;85.00
56538;DHT22;42435;53.292;6.000;2022-12-20T07:49:12;11.20;85.00
56538;DHT22;42435;53.292;6.000;2022-12-20T07:51:43;11.20;85.00
56538;DHT22;42435;53.292;6.000;2022-12-20T07:54:12;11.20;85.00
56538;DHT22;42435;53.292;6.000;2022-12-20T07:56:44;11.20;85.00
56538;DHT22;42435;53.292;6.000;2022-12-20T07:59:12;11.20;85.10
56538;DHT22;42435;53.292;6.000;2022-12-20T08:01:39;11.20;85.00
56538;DHT22;42435;53.292;6.000;2022-12-20T08:04:12;11.20;85.10
56538;DHT22;42435;53.292;6.000;2022-12-20T08:06:39;11.20;85.10
56538;DHT22;42435;53.292;6.000;2022-12-20T08:09:06;11.10;85.10
56538;DHT22;42435;53.292;6.000;2022-12-20T08:11:35;11.20;85.10
56538;DHT22;42435;53.292;6.000;2022-12-20T08:14:03;11.20;85.10
56538;DHT22;42435;53.292;6.000;2022-12-20T08:16:31;11.20;85.10
56538;DHT22;42435;53.292;6.000;2022-12-20T08:18:57;11.20;85.10
56538;DHT22;42435;53.292;6.000;2022-12-20T08:21:23;11.20;85.00
56538;DHT22;42435;53.292;6.000;2022-12-20T08:23:49;11.20;85.00
56538;DHT22;42435;53.292;6.000;2022-12-20T08:26:23;11.20;85.00
56538;DHT22;42435;53.292;6.000;2022-12-20T08:28:49;11.20;84.90
56538;DHT22;42435;53.292;6.000;2022-12-20T08:31:15;11.30;84.80
56538;DHT22;42435;53.292;6.000;2022-12-20T08:33:40;11.30;84.80
56538;DHT22;42435;53.292;6.000;2022-12-20T08:36:11;11.20;84.70
56538;DHT22;42435;53.292;6.000;2022-12-20T08:38:37;11.30;84.70
56538;DHT22;42435;53.292;6.000;2022-12-20T08:41:05;11.30;84.70
56538;DHT22;42435;53.292;6.000;2022-12-20T08:43:32;11.30;84.60
56538;DHT22;42435;53.292;6.000;2022-12-20T08:45:57;11.30;84.60
56538;DHT22;42435;53.292;6.000;2022-12-20T08:48:23;11.30;84.50
56538;DHT22;42435;53.292;6.000;2022-12-20T08:50:56;11.40;84.40
56538;DHT22;42435;53.292;6.000;2022-12-20T08:53:22;11.30;84.40
56538;DHT22;42435;53.292;6.000;2022-12-20T08:55:47;11.30;84.40
56538;DHT22;42435;53.292;6.000;2022-12-20T08:58:13;11.40;84.30
56538;DHT22;42435;53.292;6.000;2022-12-20T09:00:40;11.40;84.20
56538;DHT22;42435;53.292;6.000;2022-12-20T09:03:05;11.40;84.10
56538;DHT22;42435;53.292;6.000;2022-12-20T09:05:32;11.40;84.00
56538;DHT22;42435;53.292;6.000;2022-12-20T09:07:57;11.50;83.90
56538;DHT22;42435;53.292;6.000;2022-12-20T09:10:23;11.50;83.80
56538;DHT22;42435;53.292;6.000;2022-12-20T09:12:49;11.50;83.70
56538;DHT22;42435;53.292;6.000;2022-12-20T09:15:14;11.50;83.60
56538;DHT22;42435;53.292;6.000;2022-12-20T09:17:40;11.50;83.40
56538;DHT22;42435;53.292;6.000;2022-12-20T09:20:06;11.60;83.20
56538;DHT22;42435;53.292;6.000;2022-12-20T09:22:31;11.60;83.10
56538;DHT22;42435;53.292;6.000;2022-12-20T09:24:57;11.60;83.00
56538;DHT22;42435;53.292;6.000;2022-12-20T09:27:22;11.70;82.80
56538;DHT22;42435;53.292;6.000;2022-12-20T09:29:48;11.70;82.80
56538;DHT22;42435;53.292;6.000;2022-12-20T09:32:13;11.70;82.70
56538;DHT22;42435;53.292;6.000;2022-12-20T09:34:39;11.70;82.60
56538;DHT22;42435;53.292;6.000;2022-12-20T09:37:05;11.70;82.50
56538;DHT22;42435;53.292;6.000;2022-12-20T09:39:30;11.80;82.30
56538;DHT22;42435;53.292;6.000;2022-12-20T09:41:56;11.80;82.20
56538;DHT22;42435;53.292;6.000;2022-12-20T09:44:26;11.80;82.10
56538;DHT22;42435;53.292;6.000;2022-12-20T09:47:06;11.80;82.00
56538;DHT22;42435;53.292;6.000;2022-12-20T09:49:35;11.80;81.90
56538;DHT22;42435;53.292;6.000;2022-12-20T10:00:35;11.70;81.50
56538;DHT22;42435;53.292;6.000;2022-12-20T10:03:04;11.70;81.50
56538;DHT22;42435;53.292;6.000;2022-12-20T10:08:41;11.70;81.50
56538;DHT22;42435;53.292;6.000;2022-12-20T10:19:25;11.70;81.60
56538;DHT22;42435;53.292;6.000;2022-12-20T10:24:30;11.60;81.70
56538;DHT22;42435;53.292;6.000;2022-12-20T10:27:12;11.60;81.80
56538;DHT22;42435;53.292;6.000;2022-12-20T10:29:39;11.60;81.80
56538;DHT22;42435;53.292;6.000;2022-12-20T10:32:12;11.60;81.90
56538;DHT22;42435;53.292;6.000;2022-12-20T10:34:39;11.60;82.00
56538;DHT22;42435;53.292;6.000;2022-12-20T10:37:14;11.60;82.00
56538;DHT22;42435;53.292;6.000;2022-12-20T10:39:47;11.60;82.10
56538;DHT22;42435;53.292;6.000;2022-12-20T10:45:00;11.60;82.10
56538;DHT22;42435;53.292;6.000;2022-12-20T10:47:39;11.60;82.10
56538;DHT22;42435;53.292;6.000;2022-12-20T10:50:20;11.70;82.10
56538;DHT22;42435;53.292;6.000;2022-12-20T10:55:39;11.70;82.10
56538;DHT22;42435;53.292;6.000;2022-12-20T10:58:20;11.70;82.00
56538;DHT22;42435;53.292;6.000;2022-12-20T11:00:46;11.70;82.10
56538;DHT22;42435;53.292;6.000;2022-12-20T11:03:19;11.70;82.10
56538;DHT22;42435;53.292;6.000;2022-12-20T11:05:54;11.70;82.10
56538;DHT22;42435;53.292;6.000;2022-12-20T11:08:21;11.70;82.10
56538;DHT22;42435;53.292;6.000;2022-12-20T11:10:48;11.70;82.20
56538;DHT22;42435;53.292;6.000;2022-12-20T11:13:23;11.70;82.20
56538;DHT22;42435;53.292;6.000;2022-12-20T11:15:52;11.70;82.30
56538;DHT22;42435;53.292;6.000;2022-12-20T11:24:10;11.70;82.40
56538;DHT22;42435;53.292;6.000;2022-12-20T11:35:10;11.70;82.70
56538;DHT22;42435;53.292;6.000;2022-12-20T11:53:44;11.70;83.20
56538;DHT22;42435;53.292;6.000;2022-12-20T11:58:51;11.70;83.40
56538;DHT22;42435;53.292;6.000;2022-12-20T12:01:23;11.70;83.50
56538;DHT22;42435;53.292;6.000;2022-12-20T12:04:13;11.70;83.50
56538;DHT22;42435;53.292;6.000;2022-12-20T12:06:44;11.70;83.70
56538;DHT22;42435;53.292;6.000;2022-12-20T12:09:24;11.60;83.70
56538;DHT22;42435;53.292;6.000;2022-12-20T12:12:02;11.60;83.80
56538;DHT22;42435;53.292;6.000;2022-12-20T12:15:21;11.60;83.90
56538;DHT22;42435;53.292;6.000;2022-12-20T12:19:58;11.60;84.10
56538;DHT22;42435;53.292;6.000;2022-12-20T12:22:30;11.60;84.20
56538;DHT22;42435;53.292;6.000;2022-12-20T12:25:02;11.50;84.30
56538;DHT22;42435;53.292;6.000;2022-12-20T12:27:30;11.50;84.40
56538;DHT22;42435;53.292;6.000;2022-12-20T12:29:57;11.50;84.40
56538;DHT22;42435;53.292;6.000;2022-12-20T12:32:39;11.40;84.50
56538;DHT22;42435;53.292;6.000;2022-12-20T12:35:39;11.50;84.50
56538;DHT22;42435;53.292;6.000;2022-12-20T12:38:29;11.50;84.60
56538;DHT22;42435;53.292;6.000;2022-12-20T12:43:52;11.50;84.70
56538;DHT22;42435;53.292;6.000;2022-12-20T12:49:03;11.40;84.70
56538;DHT22;42435;53.292;6.000;2022-12-20T12:51:35;11.40;84.80
56538;DHT22;42435;53.292;6.000;2022-12-20T12:54:16;11.50;84.80
56538;DHT22;42435;53.292;6.000;2022-12-20T12:56:47;11.40;84.80
56538;DHT22;42435;53.292;6.000;2022-12-20T13:20:22;11.40;85.00
56538;DHT22;42435;53.292;6.000;2022-12-20T13:25:47;11.40;85.10
56538;DHT22;42435;53.292;6.000;2022-12-20T13:30:47;11.40;85.20
56538;DHT22;42435;53.292;6.000;2022-12-20T13:33:47;11.30;85.20
56538;DHT22;42435;53.292;6.000;2022-12-20T13:41:36;11.20;85.40
56538;DHT22;42435;53.292;6.000;2022-12-20T13:44:31;11.20;85.50
56538;DHT22;42435;53.292;6.000;2022-12-20T13:47:22;11.20;85.40
56538;DHT22;42435;53.292;6.000;2022-12-20T13:49:51;11.20;85.40
56538;DHT22;42435;53.292;6.000;2022-12-20T13:54:51;11.10;85.60
56538;DHT22;42435;53.292;6.000;2022-12-20T13:57:27;11.10;85.60
56538;DHT22;42435;53.292;6.000;2022-12-20T13:59:55;11.10;85.60
56538;DHT22;42435;53.292;6.000;2022-12-20T14:02:27;11.00;85.70
56538;DHT22;42435;53.292;6.000;2022-12-20T14:04:58;11.00;85.70
56538;DHT22;42435;53.292;6.000;2022-12-20T14:07:24;11.10;85.70
56538;DHT22;42435;53.292;6.000;2022-12-20T14:09:56;11.00;85.70
56538;DHT22;42435;53.292;6.000;2022-12-20T14:12:22;11.00;85.90
56538;DHT22;42435;53.292;6.000;2022-12-20T14:14:49;11.00;85.80
56538;DHT22;42435;53.292;6.000;2022-12-20T14:17:26;11.00;85.90
56538;DHT22;42435;53.292;6.000;2022-12-20T14:22:37;11.00;86.00
56538;DHT22;42435;53.292;6.000;2022-12-20T14:25:04;10.90;86.00
56538;DHT22;42435;53.292;6.000;2022-12-20T14:27:34;10.90;86.00
56538;DHT22;42435;53.292;6.000;2022-12-20T14:30:00;11.00;86.00
56538;DHT22;42435;53.292;6.000;2022-12-20T14:32:26;10.90;86.00
56538;DHT22;42435;53.292;6.000;2022-12-20T14:34:52;10.90;86.10
56538;DHT22;42435;53.292;6.000;2022-12-20T14:37:29;10.90;86.10
56538;DHT22;42435;53.292;6.000;2022-12-20T14:42:31;10.90;86.10
56538;DHT22;42435;53.292;6.000;2022-12-20T14:45:05;10.90;86.20
56538;DHT22;42435;53.292;6.000;2022-12-20T14:47:31;10.90;86.20
56538;DHT22;42435;53.292;6.000;2022-12-20T14:50:00;10.90;86.20
56538;DHT22;42435;53.292;6.000;2022-12-20T14:52:33;10.90;86.30
56538;DHT22;42435;53.292;6.000;2022-12-20T14:55:05;10.90;86.30
56538;DHT22;42435;53.292;6.000;2022-12-20T15:00:24;10.90;86.40
56538;DHT22;42435;53.292;6.000;2022-12-20T15:08:20;10.90;86.40
56538;DHT22;42435;53.292;6.000;2022-12-20T15:13:43;10.90;86.40
56538;DHT22;42435;53.292;6.000;2022-12-20T15:18:44;10.90;86.40
56538;DHT22;42435;53.292;6.000;2022-12-20T15:21:37;10.90;86.40
56538;DHT22;42435;53.292;6.000;2022-12-20T15:24:11;10.90;86.40
56538;DHT22;42435;53.292;6.000;2022-12-20T15:26:37;10.90;86.30
56538;DHT22;42435;53.292;6.000;2022-12-20T15:29:03;10.90;86.40
56538;DHT22;42435;53.292;6.000;2022-12-20T15:31:29;10.90;86.40
56538;DHT22;42435;53.292;6.000;2022-12-20T15:33:57;10.90;86.50
56538;DHT22;42435;53.292;6.000;2022-12-20T15:36:25;10.90;86.50
56538;DHT22;42435;53.292;6.000;2022-12-20T15:38:52;10.90;86.50
56538;DHT22;42435;53.292;6.000;2022-12-20T15:41:23;10.90;86.50
56538;DHT22;42435;53.292;6.000;2022-12-20T15:43:55;10.90;86.50
56538;DHT22;42435;53.292;6.000;2022-12-20T15:46:21;10.90;86.50
56538;DHT22;42435;53.292;6.000;2022-12-20T15:48:47;10.90;86.50
56538;DHT22;42435;53.292;6.000;2022-12-20T15:51:33;10.90;86.50
56538;DHT22;42435;53.292;6.000;2022-12-20T15:54:01;10.90;86.50
56538;DHT22;42435;53.292;6.000;2022-12-20T15:56:28;11.00;86.40
56538;DHT22;42435;53.292;6.000;2022-12-20T15:58:54;10.90;86.30
56538;DHT22;42435;53.292;6.000;2022-12-20T16:01:27;10.90;86.30
56538;DHT22;42435;53.292;6.000;2022-12-20T16:03:54;10.90;86.30
56538;DHT22;42435;53.292;6.000;2022-12-20T16:06:19;10.90;86.30
56538;DHT22;42435;53.292;6.000;2022-12-20T16:08:45;10.90;86.30
56538;DHT22;42435;53.292;6.000;2022-12-20T16:11:22;10.90;86.30
56538;DHT22;42435;53.292;6.000;2022-12-20T16:13:48;10.90;86.30
56538;DHT22;42435;53.292;6.000;2022-12-20T16:16:39;10.90;86.30
56538;DHT22;42435;53.292;6.000;2022-12-20T16:19:03;10.90;86.30
56538;DHT22;42435;53.292;6.000;2022-12-20T16:21:34;10.90;86.30
56538;DHT22;42435;53.292;6.000;2022-12-20T16:24:01;10.90;86.40
56538;DHT22;42435;53.292;6.000;2022-12-20T16:26:27;10.90;86.30
56538;DHT22;42435;53.292;6.000;2022-12-20T16:28:54;10.90;86.40
56538;DHT22;42435;53.292;6.000;2022-12-20T16:33:48;10.90;86.40
56538;DHT22;42435;53.292;6.000;2022-12-20T16:36:14;10.90;86.30
56538;DHT22;42435;53.292;6.000;2022-12-20T16:38:40;10.90;86.30
56538;DHT22;42435;53.292;6.000;2022-12-20T16:41:17;10.90;86.30
56538;DHT22;42435;53.292;6.000;2022-12-20T16:43:43;10.90;86.40
56538;DHT22;42435;53.292;6.000;2022-12-20T16:46:15;10.90;86.40
56538;DHT22;42435;53.292;6.000;2022-12-20T16:48:41;10.90;86.40
56538;DHT22;42435;53.292;6.000;2022-12-20T16:51:26;10.90;86.30
56538;DHT22;42435;53.292;6.000;2022-12-20T16:54:04;10.90;86.40
56538;DHT22;42435;53.292;6.000;2022-12-20T16:56:30;10.90;86.30
56538;DHT22;42435;53.292;6.000;2022-12-20T16:58:56;10.80;86.40
56538;DHT22;42435;53.292;6.000;2022-12-20T17:01:27;10.90;86.40
56538;DHT22;42435;53.292;6.000;2022-12-20T17:03:53;10.90;86.40
56538;DHT22;42435;53.292;6.000;2022-12-20T17:06:19;10.90;86.50
56538;DHT22;42435;53.292;6.000;2022-12-20T17:08:45;10.90;86.50
56538;DHT22;42435;53.292;6.000;2022-12-20T17:13:49;10.80;86.40
56538;DHT22;42435;53.292;6.000;2022-12-20T17:16:15;10.80;86.30
56538;DHT22;42435;53.292;6.000;2022-12-20T17:18:43;10.80;86.30
56538;DHT22;42435;53.292;6.000;2022-12-20T17:23:44;10.80;86.40
56538;DHT22;42435;53.292;6.000;2022-12-20T17:26:24;10.80;86.40
56538;DHT22;42435;53.292;6.000;2022-12-20T17:28:52;10.80;86.40
56538;DHT22;42435;53.292;6.000;2022-12-20T17:31:38;10.90;86.40
56538;DHT22;42435;53.292;6.000;2022-12-20T17:34:24;10.80;86.40
56538;DHT22;42435;53.292;6.000;2022-12-20T17:36:54;10.80;86.40
56538;DHT22;42435;53.292;6.000;2022-12-20T17:39:20;10.80;86.30
56538;DHT22;42435;53.292;6.000;2022-12-20T17:41:47;10.80;86.20
56538;DHT22;42435;53.292;6.000;2022-12-20T17:44:21;10.80;86.20
56538;DHT22;42435;53.292;6.000;2022-12-20T17:46:48;10.90;86.10
56538;DHT22;42435;53.292;6.000;2022-12-20T17:49:14;10.80;86.10
56538;DHT22;42435;53.292;6.000;2022-12-20T17:51:40;10.80;86.10
56538;DHT22;42435;53.292;6.000;2022-12-20T17:54:18;10.80;86.10
56538;DHT22;42435;53.292;6.000;2022-12-20T17:56:45;10.80;86.10
56538;DHT22;42435;53.292;6.000;2022-12-20T17:59:12;10.70;86.00
56538;DHT22;42435;53.292;6.000;2022-12-20T18:01:38;10.70;86.10
56538;DHT22;42435;53.292;6.000;2022-12-20T18:04:05;10.70;86.10
56538;DHT22;42435;53.292;6.000;2022-12-20T18:06:33;10.70;86.20